sensor_id;sensor_type;location;lat;lon;timestamp;P1;durP1;ratioP1;P2;durP2;ratioP2
7773;SDS011;3931;42.260;23.116;2023-06-04T00:00:54;9.27;;;6.83;;
7773;SDS011;3931;42.260;23.116;2023-06-04T00:03:22;12.47;;;6.93;;
7773;SDS011;3931;42.260;23.116;2023-06-04T00:05:48;8.87;;;6.97;;
7773;SDS011;3931;42.260;23.116;2023-06-04T00:08:14;20.63;;;8.00;;
7773;SDS011;3931;42.260;23.116;2023-06-04T00:10:41;13.87;;;9.10;;
7773;SDS011;3931;42.260;23.116;2023-06-04T00:13:07;11.33;;;8.17;;
7773;SDS011;3931;42.260;23.116;2023-06-04T00:15:33;12.97;;;8.40;;
7773;SDS011;3931;42.260;23.116;2023-06-04T00:17:59;11.27;;;8.40;;
7773;SDS011;3931;42.260;23.116;2023-06-04T00:20:26;13.23;;;10.10;;
7773;SDS011;3931;42.260;23.116;2023-06-04T00:22:52;20.17;;;10.23;;
7773;SDS011;3931;42.260;23.116;2023-06-04T00:25:18;21.93;;;10.90;;
7773;SDS011;3931;42.260;23.116;2023-06-04T00:27:44;16.47;;;8.80;;
7773;SDS011;3931;42.260;23.116;2023-06-04T00:30:11;10.80;;;8.23;;
7773;SDS011;3931;42.260;23.116;2023-06-04T00:32:38;10.23;;;7.13;;
7773;SDS011;3931;42.260;23.116;2023-06-04T00:35:05;18.90;;;7.20;;
7773;SDS011;3931;42.260;23.116;2023-06-04T00:37:32;15.93;;;7.10;;
7773;SDS011;3931;42.260;23.116;2023-06-04T00:39:58;10.97;;;7.03;;
7773;SDS011;3931;42.260;23.116;2023-06-04T00:42:24;8.20;;;6.77;;
7773;SDS011;3931;42.260;23.116;2023-06-04T00:44:51;14.57;;;7.43;;
7773;SDS011;3931;42.260;23.116;2023-06-04T00:47:17;14.20;;;7.37;;
7773;SDS011;3931;42.260;23.116;2023-06-04T00:49:46;10.07;;;6.70;;
7773;SDS011;3931;42.260;23.116;2023-06-04T00:52:12;14.10;;;7.07;;
7773;SDS011;3931;42.260;23.116;2023-06-04T00:54:40;9.00;;;7.13;;
7773;SDS011;3931;42.260;23.116;2023-06-04T00:57:06;16.70;;;7.83;;
7773;SDS011;3931;42.260;23.116;2023-06-04T00:59:34;14.33;;;8.07;;
7773;SDS011;3931;42.260;23.116;2023-06-04T01:02:03;12.20;;;7.63;;
7773;SDS011;3931;42.260;23.116;2023-06-04T01:04:36;13.70;;;9.37;;
7773;SDS011;3931;42.260;23.116;2023-06-04T01:07:08;15.50;;;9.97;;
7773;SDS011;3931;42.260;23.116;2023-06-04T01:09:35;23.27;;;10.23;;
7773;SDS011;3931;42.260;23.116;2023-06-04T01:12:03;15.47;;;9.87;;
7773;SDS011;3931;42.260;23.116;2023-06-04T01:14:29;12.17;;;9.87;;
7773;SDS011;3931;42.260;23.116;2023-06-04T01:16:59;15.10;;;9.47;;
7773;SDS011;3931;42.260;23.116;2023-06-04T01:19:42;16.10;;;9.63;;
7773;SDS011;3931;42.260;23.116;2023-06-04T01:22:39;16.90;;;9.80;;
7773;SDS011;3931;42.260;23.116;2023-06-04T01:25:11;12.10;;;8.97;;
7773;SDS011;3931;42.260;23.116;2023-06-04T01:27:45;13.33;;;9.23;;
7773;SDS011;3931;42.260;23.116;2023-06-04T01:30:14;13.87;;;9.00;;
7773;SDS011;3931;42.260;23.116;2023-06-04T01:32:41;12.53;;;9.77;;
7773;SDS011;3931;42.260;23.116;2023-06-04T01:35:08;12.93;;;9.43;;
7773;SDS011;3931;42.260;23.116;2023-06-04T01:37:34;14.20;;;8.50;;
7773;SDS011;3931;42.260;23.116;2023-06-04T01:40:02;18.00;;;8.40;;
7773;SDS011;3931;42.260;23.116;2023-06-04T01:42:28;11.97;;;8.90;;
7773;SDS011;3931;42.260;23.116;2023-06-04T01:44:54;12.57;;;8.37;;
7773;SDS011;3931;42.260;23.116;2023-06-04T01:47:20;14.67;;;9.63;;
7773;SDS011;3931;42.260;23.116;2023-06-04T01:49:46;15.37;;;9.97;;
7773;SDS011;3931;42.260;23.116;2023-06-04T01:52:12;14.07;;;9.10;;
7773;SDS011;3931;42.260;23.116;2023-06-04T01:54:38;18.90;;;10.47;;
7773;SDS011;3931;42.260;23.116;2023-06-04T01:57:06;17.70;;;10.03;;
7773;SDS011;3931;42.260;23.116;2023-06-04T01:59:33;14.97;;;9.67;;
7773;SDS011;3931;42.260;23.116;2023-06-04T02:02:01;21.20;;;10.70;;
7773;SDS011;3931;42.260;23.116;2023-06-04T02:04:27;21.80;;;9.70;;
7773;SDS011;3931;42.260;23.116;2023-06-04T02:06:53;30.57;;;10.17;;
7773;SDS011;3931;42.260;23.116;2023-06-04T02:09:20;15.93;;;9.23;;
7773;SDS011;3931;42.260;23.116;2023-06-04T02:11:47;11.63;;;9.47;;
7773;SDS011;3931;42.260;23.116;2023-06-04T02:14:13;9.90;;;8.63;;
7773;SDS011;3931;42.260;23.116;2023-06-04T02:16:39;14.40;;;9.80;;
7773;SDS011;3931;42.260;23.116;2023-06-04T02:19:05;17.17;;;8.77;;
7773;SDS011;3931;42.260;23.116;2023-06-04T02:21:31;13.03;;;8.53;;
7773;SDS011;3931;42.260;23.116;2023-06-04T02:23:57;15.50;;;9.13;;
7773;SDS011;3931;42.260;23.116;2023-06-04T02:26:23;11.77;;;9.80;;
7773;SDS011;3931;42.260;23.116;2023-06-04T02:28:50;17.27;;;8.70;;
7773;SDS011;3931;42.260;23.116;2023-06-04T02:31:16;12.20;;;8.90;;
7773;SDS011;3931;42.260;23.116;2023-06-04T02:33:42;11.10;;;8.20;;
7773;SDS011;3931;42.260;23.116;2023-06-04T02:36:09;12.13;;;8.77;;
7773;SDS011;3931;42.260;23.116;2023-06-04T02:38:35;14.17;;;8.00;;
7773;SDS011;3931;42.260;23.116;2023-06-04T02:41:01;10.53;;;7.20;;
7773;SDS011;3931;42.260;23.116;2023-06-04T02:43:27;16.10;;;7.70;;
7773;SDS011;3931;42.260;23.116;2023-06-04T02:45:53;15.23;;;8.90;;
7773;SDS011;3931;42.260;23.116;2023-06-04T02:48:19;16.33;;;8.93;;
7773;SDS011;3931;42.260;23.116;2023-06-04T02:50:45;13.97;;;9.33;;
7773;SDS011;3931;42.260;23.116;2023-06-04T02:53:12;14.50;;;9.27;;
7773;SDS011;3931;42.260;23.116;2023-06-04T02:55:38;15.23;;;9.50;;
7773;SDS011;3931;42.260;23.116;2023-06-04T02:58:04;13.27;;;10.07;;
7773;SDS011;3931;42.260;23.116;2023-06-04T03:00:30;13.83;;;9.10;;
7773;SDS011;3931;42.260;23.116;2023-06-04T03:02:56;19.37;;;10.10;;
7773;SDS011;3931;42.260;23.116;2023-06-04T03:05:27;13.83;;;10.33;;
7773;SDS011;3931;42.260;23.116;2023-06-04T03:07:55;15.13;;;10.10;;
7773;SDS011;3931;42.260;23.116;2023-06-04T03:10:23;13.33;;;10.07;;
7773;SDS011;3931;42.260;23.116;2023-06-04T03:12:49;15.37;;;10.73;;
7773;SDS011;3931;42.260;23.116;2023-06-04T03:15:15;26.93;;;10.40;;
7773;SDS011;3931;42.260;23.116;2023-06-04T03:17:42;16.03;;;10.03;;
7773;SDS011;3931;42.260;23.116;2023-06-04T03:20:09;21.00;;;9.80;;
7773;SDS011;3931;42.260;23.116;2023-06-04T03:22:36;23.90;;;10.33;;
7773;SDS011;3931;42.260;23.116;2023-06-04T03:25:03;23.00;;;10.43;;
7773;SDS011;3931;42.260;23.116;2023-06-04T03:27:30;15.43;;;9.70;;
7773;SDS011;3931;42.260;23.116;2023-06-04T03:29:56;19.57;;;9.83;;
7773;SDS011;3931;42.260;23.116;2023-06-04T03:32:23;27.30;;;9.40;;
7773;SDS011;3931;42.260;23.116;2023-06-04T03:34:49;17.10;;;10.20;;
7773;SDS011;3931;42.260;23.116;2023-06-04T03:37:16;23.30;;;12.13;;
7773;SDS011;3931;42.260;23.116;2023-06-04T03:39:43;20.87;;;11.90;;
7773;SDS011;3931;42.260;23.116;2023-06-04T03:42:09;18.07;;;10.70;;
7773;SDS011;3931;42.260;23.116;2023-06-04T03:44:35;20.80;;;11.80;;
7773;SDS011;3931;42.260;23.116;2023-06-04T03:47:01;14.47;;;11.30;;
7773;SDS011;3931;42.260;23.116;2023-06-04T03:49:27;17.07;;;11.70;;
7773;SDS011;3931;42.260;23.116;2023-06-04T03:51:53;16.50;;;11.07;;
7773;SDS011;3931;42.260;23.116;2023-06-04T03:54:20;21.23;;;11.20;;
7773;SDS011;3931;42.260;23.116;2023-06-04T03:56:47;21.70;;;12.37;;
7773;SDS011;3931;42.260;23.116;2023-06-04T03:59:13;23.93;;;12.10;;
7773;SDS011;3931;42.260;23.116;2023-06-04T04:01:39;21.00;;;11.60;;
7773;SDS011;3931;42.260;23.116;2023-06-04T04:04:05;17.93;;;12.80;;
7773;SDS011;3931;42.260;23.116;2023-06-04T04:06:31;16.70;;;11.83;;
7773;SDS011;3931;42.260;23.116;2023-06-04T04:08:57;15.00;;;10.80;;
7773;SDS011;3931;42.260;23.116;2023-06-04T04:11:23;21.53;;;10.53;;
7773;SDS011;3931;42.260;23.116;2023-06-04T04:13:51;17.43;;;10.90;;
7773;SDS011;3931;42.260;23.116;2023-06-04T04:16:17;16.47;;;11.30;;
7773;SDS011;3931;42.260;23.116;2023-06-04T04:18:43;14.43;;;11.00;;
7773;SDS011;3931;42.260;23.116;2023-06-04T04:21:09;16.50;;;10.63;;
7773;SDS011;3931;42.260;23.116;2023-06-04T04:23:37;16.63;;;11.03;;
7773;SDS011;3931;42.260;23.116;2023-06-04T04:26:03;17.50;;;11.00;;
7773;SDS011;3931;42.260;23.116;2023-06-04T04:28:29;14.57;;;11.10;;
7773;SDS011;3931;42.260;23.116;2023-06-04T04:30:58;18.93;;;11.60;;
7773;SDS011;3931;42.260;23.116;2023-06-04T04:33:24;12.37;;;9.97;;
7773;SDS011;3931;42.260;23.116;2023-06-04T04:35:50;19.57;;;10.30;;
7773;SDS011;3931;42.260;23.116;2023-06-04T04:38:17;13.77;;;10.17;;
7773;SDS011;3931;42.260;23.116;2023-06-04T04:40:43;14.30;;;10.60;;
7773;SDS011;3931;42.260;23.116;2023-06-04T04:43:12;21.23;;;11.97;;
7773;SDS011;3931;42.260;23.116;2023-06-04T04:45:38;21.50;;;11.50;;
7773;SDS011;3931;42.260;23.116;2023-06-04T04:48:05;19.53;;;13.60;;
7773;SDS011;3931;42.260;23.116;2023-06-04T04:50:31;16.30;;;11.87;;
7773;SDS011;3931;42.260;23.116;2023-06-04T04:52:57;20.70;;;11.90;;
7773;SDS011;3931;42.260;23.116;2023-06-04T04:55:23;19.93;;;11.50;;
7773;SDS011;3931;42.260;23.116;2023-06-04T04:57:50;12.90;;;10.77;;
7773;SDS011;3931;42.260;23.116;2023-06-04T05:00:16;14.60;;;11.20;;
7773;SDS011;3931;42.260;23.116;2023-06-04T05:02:42;18.43;;;11.83;;
7773;SDS011;3931;42.260;23.116;2023-06-04T05:05:09;18.10;;;10.63;;
7773;SDS011;3931;42.260;23.116;2023-06-04T05:07:36;14.73;;;11.03;;
7773;SDS011;3931;42.260;23.116;2023-06-04T05:10:02;17.90;;;12.07;;
7773;SDS011;3931;42.260;23.116;2023-06-04T05:12:29;12.83;;;10.00;;
7773;SDS011;3931;42.260;23.116;2023-06-04T05:14:56;12.80;;;10.40;;
7773;SDS011;3931;42.260;23.116;2023-06-04T05:17:22;16.50;;;11.40;;
7773;SDS011;3931;42.260;23.116;2023-06-04T05:19:55;13.03;;;10.53;;
7773;SDS011;3931;42.260;23.116;2023-06-04T05:22:31;14.63;;;10.50;;
7773;SDS011;3931;42.260;23.116;2023-06-04T05:24:57;15.53;;;11.27;;
7773;SDS011;3931;42.260;23.116;2023-06-04T05:27:25;12.10;;;9.50;;
7773;SDS011;3931;42.260;23.116;2023-06-04T05:29:51;20.50;;;10.97;;
7773;SDS011;3931;42.260;23.116;2023-06-04T05:32:17;14.50;;;10.37;;
7773;SDS011;3931;42.260;23.116;2023-06-04T05:34:43;13.33;;;10.67;;
7773;SDS011;3931;42.260;23.116;2023-06-04T05:37:12;17.13;;;10.33;;
7773;SDS011;3931;42.260;23.116;2023-06-04T05:39:42;13.80;;;10.20;;
7773;SDS011;3931;42.260;23.116;2023-06-04T05:42:08;14.53;;;10.17;;
7773;SDS011;3931;42.260;23.116;2023-06-04T05:44:34;19.63;;;11.30;;
7773;SDS011;3931;42.260;23.116;2023-06-04T05:47:00;13.67;;;11.20;;
7773;SDS011;3931;42.260;23.116;2023-06-04T05:49:26;11.13;;;8.90;;
7773;SDS011;3931;42.260;23.116;2023-06-04T05:51:52;15.50;;;9.27;;
7773;SDS011;3931;42.260;23.116;2023-06-04T05:54:18;13.70;;;8.40;;
7773;SDS011;3931;42.260;23.116;2023-06-04T05:56:45;15.20;;;9.50;;
7773;SDS011;3931;42.260;23.116;2023-06-04T05:59:11;9.80;;;8.27;;
7773;SDS011;3931;42.260;23.116;2023-06-04T06:01:37;10.37;;;8.67;;
7773;SDS011;3931;42.260;23.116;2023-06-04T06:04:03;11.63;;;7.67;;
7773;SDS011;3931;42.260;23.116;2023-06-04T06:06:30;9.07;;;7.10;;
7773;SDS011;3931;42.260;23.116;2023-06-04T06:08:56;12.37;;;7.80;;
7773;SDS011;3931;42.260;23.116;2023-06-04T06:11:23;15.37;;;7.07;;
7773;SDS011;3931;42.260;23.116;2023-06-04T06:13:52;10.90;;;6.63;;
7773;SDS011;3931;42.260;23.116;2023-06-04T06:16:18;9.87;;;6.70;;
7773;SDS011;3931;42.260;23.116;2023-06-04T06:18:44;8.20;;;6.93;;
7773;SDS011;3931;42.260;23.116;2023-06-04T06:21:10;10.07;;;6.87;;
7773;SDS011;3931;42.260;23.116;2023-06-04T06:23:36;6.67;;;5.93;;
7773;SDS011;3931;42.260;23.116;2023-06-04T06:26:02;8.27;;;6.20;;
7773;SDS011;3931;42.260;23.116;2023-06-04T06:28:33;12.93;;;8.17;;
7773;SDS011;3931;42.260;23.116;2023-06-04T06:31:00;13.60;;;7.23;;
7773;SDS011;3931;42.260;23.116;2023-06-04T06:33:26;9.73;;;7.00;;
7773;SDS011;3931;42.260;23.116;2023-06-04T06:35:52;18.23;;;8.17;;
7773;SDS011;3931;42.260;23.116;2023-06-04T06:38:18;11.70;;;7.93;;
7773;SDS011;3931;42.260;23.116;2023-06-04T06:40:44;12.90;;;8.77;;
7773;SDS011;3931;42.260;23.116;2023-06-04T06:43:10;10.10;;;8.23;;
7773;SDS011;3931;42.260;23.116;2023-06-04T06:45:36;15.03;;;9.00;;
7773;SDS011;3931;42.260;23.116;2023-06-04T06:48:03;15.17;;;10.37;;
7773;SDS011;3931;42.260;23.116;2023-06-04T06:50:29;13.63;;;10.00;;
7773;SDS011;3931;42.260;23.116;2023-06-04T06:52:55;12.10;;;9.00;;
7773;SDS011;3931;42.260;23.116;2023-06-04T06:55:22;12.57;;;8.90;;
7773;SDS011;3931;42.260;23.116;2023-06-04T06:57:48;10.47;;;8.80;;
7773;SDS011;3931;42.260;23.116;2023-06-04T07:00:14;11.90;;;8.87;;
7773;SDS011;3931;42.260;23.116;2023-06-04T07:02:41;10.67;;;8.30;;
7773;SDS011;3931;42.260;23.116;2023-06-04T07:05:08;12.30;;;9.93;;
7773;SDS011;3931;42.260;23.116;2023-06-04T07:07:34;20.17;;;9.50;;
7773;SDS011;3931;42.260;23.116;2023-06-04T07:10:01;12.70;;;9.30;;
7773;SDS011;3931;42.260;23.116;2023-06-04T07:12:28;10.07;;;8.97;;
7773;SDS011;3931;42.260;23.116;2023-06-04T07:14:55;17.30;;;9.93;;
7773;SDS011;3931;42.260;23.116;2023-06-04T07:17:21;10.77;;;9.03;;
7773;SDS011;3931;42.260;23.116;2023-06-04T07:19:47;16.93;;;9.20;;
7773;SDS011;3931;42.260;23.116;2023-06-04T07:22:14;14.20;;;9.30;;
7773;SDS011;3931;42.260;23.116;2023-06-04T07:24:40;16.63;;;12.20;;
7773;SDS011;3931;42.260;23.116;2023-06-04T07:27:10;14.53;;;10.57;;
7773;SDS011;3931;42.260;23.116;2023-06-04T07:29:38;13.73;;;10.27;;
7773;SDS011;3931;42.260;23.116;2023-06-04T07:32:04;12.90;;;10.10;;
7773;SDS011;3931;42.260;23.116;2023-06-04T07:34:30;11.80;;;9.37;;
7773;SDS011;3931;42.260;23.116;2023-06-04T07:36:56;19.33;;;9.77;;
7773;SDS011;3931;42.260;23.116;2023-06-04T07:39:23;13.17;;;9.00;;
7773;SDS011;3931;42.260;23.116;2023-06-04T07:41:49;10.87;;;8.30;;
7773;SDS011;3931;42.260;23.116;2023-06-04T07:44:15;15.33;;;8.73;;
7773;SDS011;3931;42.260;23.116;2023-06-04T07:46:41;12.03;;;8.80;;
7773;SDS011;3931;42.260;23.116;2023-06-04T07:49:08;18.17;;;9.13;;
7773;SDS011;3931;42.260;23.116;2023-06-04T07:51:34;15.67;;;9.97;;
7773;SDS011;3931;42.260;23.116;2023-06-04T07:54:00;16.60;;;10.40;;
7773;SDS011;3931;42.260;23.116;2023-06-04T07:56:27;13.10;;;10.17;;
7773;SDS011;3931;42.260;23.116;2023-06-04T07:58:53;14.47;;;9.50;;
7773;SDS011;3931;42.260;23.116;2023-06-04T08:01:20;14.50;;;10.77;;
7773;SDS011;3931;42.260;23.116;2023-06-04T08:03:46;12.10;;;10.17;;
7773;SDS011;3931;42.260;23.116;2023-06-04T08:06:12;18.80;;;11.63;;
7773;SDS011;3931;42.260;23.116;2023-06-04T08:08:41;14.27;;;10.97;;
7773;SDS011;3931;42.260;23.116;2023-06-04T08:11:09;18.90;;;11.23;;
7773;SDS011;3931;42.260;23.116;2023-06-04T08:13:36;14.20;;;11.80;;
7773;SDS011;3931;42.260;23.116;2023-06-04T08:16:02;13.43;;;9.93;;
7773;SDS011;3931;42.260;23.116;2023-06-04T08:18:28;17.20;;;12.33;;
7773;SDS011;3931;42.260;23.116;2023-06-04T08:20:54;14.63;;;9.80;;
7773;SDS011;3931;42.260;23.116;2023-06-04T08:23:20;23.10;;;16.10;;
7773;SDS011;3931;42.260;23.116;2023-06-04T08:25:46;20.97;;;13.77;;
7773;SDS011;3931;42.260;23.116;2023-06-04T08:28:13;14.47;;;11.80;;
7773;SDS011;3931;42.260;23.116;2023-06-04T08:30:41;17.43;;;9.43;;
7773;SDS011;3931;42.260;23.116;2023-06-04T08:33:07;16.37;;;11.20;;
7773;SDS011;3931;42.260;23.116;2023-06-04T08:35:33;16.67;;;10.90;;
7773;SDS011;3931;42.260;23.116;2023-06-04T08:38:00;14.50;;;10.70;;
7773;SDS011;3931;42.260;23.116;2023-06-04T08:40:26;12.20;;;10.43;;
7773;SDS011;3931;42.260;23.116;2023-06-04T08:42:52;14.53;;;12.07;;
7773;SDS011;3931;42.260;23.116;2023-06-04T08:45:23;17.50;;;11.53;;
7773;SDS011;3931;42.260;23.116;2023-06-04T08:47:52;18.40;;;10.40;;
7773;SDS011;3931;42.260;23.116;2023-06-04T08:50:19;17.07;;;9.90;;
7773;SDS011;3931;42.260;23.116;2023-06-04T08:52:47;10.90;;;8.40;;
7773;SDS011;3931;42.260;23.116;2023-06-04T08:55:15;18.27;;;8.17;;
7773;SDS011;3931;42.260;23.116;2023-06-04T08:57:41;11.27;;;8.50;;
7773;SDS011;3931;42.260;23.116;2023-06-04T09:00:08;15.57;;;9.40;;
7773;SDS011;3931;42.260;23.116;2023-06-04T09:02:35;8.93;;;7.73;;
7773;SDS011;3931;42.260;23.116;2023-06-04T09:05:04;9.10;;;7.07;;
7773;SDS011;3931;42.260;23.116;2023-06-04T09:07:33;11.27;;;6.90;;
7773;SDS011;3931;42.260;23.116;2023-06-04T09:10:01;11.20;;;6.97;;
7773;SDS011;3931;42.260;23.116;2023-06-04T09:12:28;10.63;;;7.23;;
7773;SDS011;3931;42.260;23.116;2023-06-04T09:14:55;9.07;;;7.00;;
7773;SDS011;3931;42.260;23.116;2023-06-04T09:17:21;12.40;;;7.40;;
7773;SDS011;3931;42.260;23.116;2023-06-04T09:19:48;11.73;;;7.30;;
7773;SDS011;3931;42.260;23.116;2023-06-04T09:22:14;9.50;;;8.07;;
7773;SDS011;3931;42.260;23.116;2023-06-04T09:24:41;18.33;;;9.50;;
7773;SDS011;3931;42.260;23.116;2023-06-04T09:27:10;12.80;;;9.97;;
7773;SDS011;3931;42.260;23.116;2023-06-04T09:29:38;16.37;;;9.70;;
7773;SDS011;3931;42.260;23.116;2023-06-04T09:32:04;14.33;;;9.10;;
7773;SDS011;3931;42.260;23.116;2023-06-04T09:34:30;12.60;;;9.40;;
7773;SDS011;3931;42.260;23.116;2023-06-04T09:36:57;14.17;;;9.47;;
7773;SDS011;3931;42.260;23.116;2023-06-04T09:39:24;13.80;;;9.90;;
7773;SDS011;3931;42.260;23.116;2023-06-04T09:41:57;8.77;;;7.70;;
7773;SDS011;3931;42.260;23.116;2023-06-04T09:44:24;10.80;;;7.77;;
7773;SDS011;3931;42.260;23.116;2023-06-04T09:46:53;15.73;;;8.03;;
7773;SDS011;3931;42.260;23.116;2023-06-04T09:49:19;12.43;;;7.97;;
7773;SDS011;3931;42.260;23.116;2023-06-04T09:51:46;11.77;;;8.33;;
7773;SDS011;3931;42.260;23.116;2023-06-04T09:54:13;11.20;;;8.30;;
7773;SDS011;3931;42.260;23.116;2023-06-04T09:56:39;12.53;;;8.27;;
7773;SDS011;3931;42.260;23.116;2023-06-04T09:59:06;10.80;;;7.23;;
7773;SDS011;3931;42.260;23.116;2023-06-04T10:01:35;13.50;;;9.70;;
7773;SDS011;3931;42.260;23.116;2023-06-04T10:04:06;13.47;;;10.43;;
7773;SDS011;3931;42.260;23.116;2023-06-04T10:06:33;17.03;;;11.57;;
7773;SDS011;3931;42.260;23.116;2023-06-04T10:09:03;15.30;;;11.50;;
7773;SDS011;3931;42.260;23.116;2023-06-04T10:11:39;19.80;;;12.70;;
7773;SDS011;3931;42.260;23.116;2023-06-04T10:14:10;17.17;;;12.23;;
7773;SDS011;3931;42.260;23.116;2023-06-04T10:16:45;34.23;;;11.67;;
7773;SDS011;3931;42.260;23.116;2023-06-04T10:19:12;15.20;;;10.50;;
7773;SDS011;3931;42.260;23.116;2023-06-04T10:21:40;17.60;;;10.93;;
7773;SDS011;3931;42.260;23.116;2023-06-04T10:24:07;16.93;;;10.83;;
7773;SDS011;3931;42.260;23.116;2023-06-04T10:26:33;22.80;;;11.70;;
7773;SDS011;3931;42.260;23.116;2023-06-04T10:29:01;16.63;;;12.30;;
7773;SDS011;3931;42.260;23.116;2023-06-04T10:31:27;14.60;;;11.30;;
7773;SDS011;3931;42.260;23.116;2023-06-04T10:33:54;14.80;;;11.80;;
7773;SDS011;3931;42.260;23.116;2023-06-04T10:36:21;19.20;;;12.43;;
7773;SDS011;3931;42.260;23.116;2023-06-04T10:38:50;15.40;;;12.30;;
7773;SDS011;3931;42.260;23.116;2023-06-04T10:41:17;13.30;;;10.10;;
7773;SDS011;3931;42.260;23.116;2023-06-04T10:43:44;14.87;;;10.97;;
7773;SDS011;3931;42.260;23.116;2023-06-04T10:46:12;18.57;;;11.10;;
7773;SDS011;3931;42.260;23.116;2023-06-04T10:48:45;13.17;;;9.87;;
7773;SDS011;3931;42.260;23.116;2023-06-04T10:51:11;17.90;;;11.00;;
7773;SDS011;3931;42.260;23.116;2023-06-04T10:53:37;12.70;;;10.00;;
7773;SDS011;3931;42.260;23.116;2023-06-04T10:56:03;15.60;;;11.00;;
7773;SDS011;3931;42.260;23.116;2023-06-04T10:58:31;13.03;;;9.97;;
7773;SDS011;3931;42.260;23.116;2023-06-04T11:00:58;12.77;;;10.03;;
7773;SDS011;3931;42.260;23.116;2023-06-04T11:03:34;17.37;;;9.27;;
7773;SDS011;3931;42.260;23.116;2023-06-04T11:06:01;15.43;;;10.83;;
7773;SDS011;3931;42.260;23.116;2023-06-04T11:08:28;13.03;;;9.33;;
7773;SDS011;3931;42.260;23.116;2023-06-04T11:10:55;13.70;;;10.27;;
7773;SDS011;3931;42.260;23.116;2023-06-04T11:13:22;11.03;;;9.33;;
7773;SDS011;3931;42.260;23.116;2023-06-04T11:15:49;11.80;;;8.93;;
7773;SDS011;3931;42.260;23.116;2023-06-04T11:18:15;14.60;;;9.30;;
7773;SDS011;3931;42.260;23.116;2023-06-04T11:20:43;12.30;;;8.90;;
7773;SDS011;3931;42.260;23.116;2023-06-04T11:23:11;13.30;;;8.20;;
7773;SDS011;3931;42.260;23.116;2023-06-04T11:25:37;10.80;;;8.50;;
7773;SDS011;3931;42.260;23.116;2023-06-04T11:28:04;9.40;;;7.63;;
7773;SDS011;3931;42.260;23.116;2023-06-04T11:30:30;11.50;;;8.10;;
7773;SDS011;3931;42.260;23.116;2023-06-04T11:33:00;9.40;;;7.83;;
7773;SDS011;3931;42.260;23.116;2023-06-04T11:35:27;11.50;;;8.20;;
7773;SDS011;3931;42.260;23.116;2023-06-04T11:37:54;13.73;;;8.37;;
7773;SDS011;3931;42.260;23.116;2023-06-04T11:40:21;10.80;;;8.60;;
7773;SDS011;3931;42.260;23.116;2023-06-04T11:42:47;11.43;;;8.90;;
7773;SDS011;3931;42.260;23.116;2023-06-04T11:45:15;10.47;;;8.10;;
7773;SDS011;3931;42.260;23.116;2023-06-04T11:47:44;12.00;;;7.97;;
7773;SDS011;3931;42.260;23.116;2023-06-04T11:50:11;9.37;;;7.37;;
7773;SDS011;3931;42.260;23.116;2023-06-04T11:52:37;9.97;;;7.70;;
7773;SDS011;3931;42.260;23.116;2023-06-04T11:55:05;9.83;;;7.77;;
7773;SDS011;3931;42.260;23.116;2023-06-04T11:57:34;9.70;;;7.63;;
7773;SDS011;3931;42.260;23.116;2023-06-04T12:00:01;14.63;;;7.80;;
7773;SDS011;3931;42.260;23.116;2023-06-04T12:02:28;12.53;;;7.60;;
7773;SDS011;3931;42.260;23.116;2023-06-04T12:04:54;11.80;;;7.50;;
7773;SDS011;3931;42.260;23.116;2023-06-04T12:07:20;9.53;;;6.80;;
7773;SDS011;3931;42.260;23.116;2023-06-04T12:09:49;8.33;;;6.60;;
7773;SDS011;3931;42.260;23.116;2023-06-04T12:12:20;14.17;;;7.43;;
7773;SDS011;3931;42.260;23.116;2023-06-04T12:14:47;10.57;;;6.83;;
7773;SDS011;3931;42.260;23.116;2023-06-04T12:17:21;8.53;;;7.53;;
7773;SDS011;3931;42.260;23.116;2023-06-04T12:19:47;7.97;;;6.43;;
7773;SDS011;3931;42.260;23.116;2023-06-04T12:22:14;10.00;;;7.03;;
7773;SDS011;3931;42.260;23.116;2023-06-04T12:24:46;14.63;;;7.40;;
7773;SDS011;3931;42.260;23.116;2023-06-04T12:27:13;13.53;;;7.53;;
7773;SDS011;3931;42.260;23.116;2023-06-04T12:29:40;8.23;;;6.20;;
7773;SDS011;3931;42.260;23.116;2023-06-04T12:32:07;11.40;;;7.20;;
7773;SDS011;3931;42.260;23.116;2023-06-04T12:34:36;12.20;;;6.97;;
7773;SDS011;3931;42.260;23.116;2023-06-04T12:37:02;13.20;;;7.10;;
7773;SDS011;3931;42.260;23.116;2023-06-04T12:39:31;10.40;;;6.60;;
7773;SDS011;3931;42.260;23.116;2023-06-04T12:41:57;11.00;;;7.13;;
7773;SDS011;3931;42.260;23.116;2023-06-04T12:44:23;9.50;;;6.43;;
7773;SDS011;3931;42.260;23.116;2023-06-04T12:46:50;8.03;;;6.50;;
7773;SDS011;3931;42.260;23.116;2023-06-04T12:49:16;10.43;;;6.63;;
7773;SDS011;3931;42.260;23.116;2023-06-04T12:51:42;7.97;;;6.37;;
7773;SDS011;3931;42.260;23.116;2023-06-04T12:54:09;8.33;;;6.03;;
7773;SDS011;3931;42.260;23.116;2023-06-04T12:56:35;7.33;;;6.50;;
7773;SDS011;3931;42.260;23.116;2023-06-04T12:59:01;8.93;;;7.63;;
7773;SDS011;3931;42.260;23.116;2023-06-04T13:01:27;8.03;;;6.83;;
7773;SDS011;3931;42.260;23.116;2023-06-04T13:03:54;7.47;;;6.67;;
7773;SDS011;3931;42.260;23.116;2023-06-04T13:06:20;9.30;;;7.20;;
7773;SDS011;3931;42.260;23.116;2023-06-04T13:08:46;14.87;;;7.90;;
7773;SDS011;3931;42.260;23.116;2023-06-04T13:11:13;10.30;;;7.53;;
7773;SDS011;3931;42.260;23.116;2023-06-04T13:13:39;9.83;;;7.80;;
7773;SDS011;3931;42.260;23.116;2023-06-04T13:16:05;15.77;;;8.50;;
7773;SDS011;3931;42.260;23.116;2023-06-04T13:18:31;9.93;;;8.67;;
7773;SDS011;3931;42.260;23.116;2023-06-04T13:20:57;11.33;;;8.20;;
7773;SDS011;3931;42.260;23.116;2023-06-04T13:23:23;10.50;;;7.93;;
7773;SDS011;3931;42.260;23.116;2023-06-04T13:25:49;9.73;;;8.17;;
7773;SDS011;3931;42.260;23.116;2023-06-04T13:28:16;13.40;;;8.33;;
7773;SDS011;3931;42.260;23.116;2023-06-04T13:30:42;11.73;;;8.20;;
7773;SDS011;3931;42.260;23.116;2023-06-04T13:33:08;10.80;;;9.23;;
7773;SDS011;3931;42.260;23.116;2023-06-04T13:35:35;8.40;;;7.57;;
7773;SDS011;3931;42.260;23.116;2023-06-04T13:38:03;11.03;;;8.73;;
7773;SDS011;3931;42.260;23.116;2023-06-04T13:40:30;18.00;;;8.87;;
7773;SDS011;3931;42.260;23.116;2023-06-04T13:42:56;14.17;;;9.73;;
7773;SDS011;3931;42.260;23.116;2023-06-04T13:45:22;10.87;;;8.57;;
7773;SDS011;3931;42.260;23.116;2023-06-04T13:47:48;12.40;;;7.60;;
7773;SDS011;3931;42.260;23.116;2023-06-04T13:50:15;10.70;;;7.57;;
7773;SDS011;3931;42.260;23.116;2023-06-04T13:52:41;10.67;;;7.83;;
7773;SDS011;3931;42.260;23.116;2023-06-04T13:55:08;9.57;;;8.43;;
7773;SDS011;3931;42.260;23.116;2023-06-04T13:57:35;12.57;;;7.67;;
7773;SDS011;3931;42.260;23.116;2023-06-04T14:00:01;9.40;;;8.50;;
7773;SDS011;3931;42.260;23.116;2023-06-04T14:02:27;52.73;;;9.53;;
7773;SDS011;3931;42.260;23.116;2023-06-04T14:04:53;14.53;;;6.70;;
7773;SDS011;3931;42.260;23.116;2023-06-04T14:07:20;8.70;;;6.33;;
7773;SDS011;3931;42.260;23.116;2023-06-04T14:09:46;9.70;;;6.90;;
7773;SDS011;3931;42.260;23.116;2023-06-04T14:12:14;7.57;;;6.40;;
7773;SDS011;3931;42.260;23.116;2023-06-04T14:14:43;7.90;;;6.97;;
7773;SDS011;3931;42.260;23.116;2023-06-04T14:17:09;10.20;;;7.50;;
7773;SDS011;3931;42.260;23.116;2023-06-04T14:19:35;9.90;;;7.13;;
7773;SDS011;3931;42.260;23.116;2023-06-04T14:22:01;7.93;;;6.60;;
7773;SDS011;3931;42.260;23.116;2023-06-04T14:24:27;18.90;;;7.30;;
7773;SDS011;3931;42.260;23.116;2023-06-04T14:26:53;12.57;;;7.80;;
7773;SDS011;3931;42.260;23.116;2023-06-04T14:29:20;7.47;;;6.43;;
7773;SDS011;3931;42.260;23.116;2023-06-04T14:31:46;7.20;;;6.37;;
7773;SDS011;3931;42.260;23.116;2023-06-04T14:34:12;8.20;;;6.00;;
7773;SDS011;3931;42.260;23.116;2023-06-04T14:36:38;6.47;;;5.63;;
7773;SDS011;3931;42.260;23.116;2023-06-04T14:39:04;8.63;;;6.40;;
7773;SDS011;3931;42.260;23.116;2023-06-04T14:41:30;12.60;;;5.50;;
7773;SDS011;3931;42.260;23.116;2023-06-04T14:43:56;8.10;;;6.00;;